sensor_id;sensor_type;location;lat;lon;timestamp;temperature;humidity
59651;DHT22;45954;49.768;8.636;2023-04-24T00:00:20;13.80;99.90
59651;DHT22;45954;49.768;8.636;2023-04-24T00:02:46;13.80;99.90
59651;DHT22;45954;49.768;8.636;2023-04-24T00:05:14;13.70;99.90
59651;DHT22;45954;49.768;8.636;2023-04-24T00:07:41;13.80;99.90
59651;DHT22;45954;49.768;8.636;2023-04-24T00:10:08;13.70;99.90
59651;DHT22;45954;49.768;8.636;2023-04-24T00:12:35;13.70;99.90
59651;DHT22;45954;49.768;8.636;2023-04-24T00:15:02;13.60;99.90
59651;DHT22;45954;49.768;8.636;2023-04-24T00:17:28;13.70;99.90
59651;DHT22;45954;49.768;8.636;2023-04-24T00:19:54;13.60;99.90
59651;DHT22;45954;49.768;8.636;2023-04-24T00:22:28;13.70;99.90
59651;DHT22;45954;49.768;8.636;2023-04-24T00:24:54;13.70;99.90
59651;DHT22;45954;49.768;8.636;2023-04-24T00:27:20;13.70;99.90
59651;DHT22;45954;49.768;8.636;2023-04-24T00:29:46;13.70;99.90
59651;DHT22;45954;49.768;8.636;2023-04-24T00:32:13;13.50;99.90
59651;DHT22;45954;49.768;8.636;2023-04-24T00:34:39;13.40;99.90
59651;DHT22;45954;49.768;8.636;2023-04-24T00:37:05;13.10;99.90
59651;DHT22;45954;49.768;8.636;2023-04-24T00:39:32;13.10;99.90
59651;DHT22;45954;49.768;8.636;2023-04-24T00:41:58;12.90;99.90
59651;DHT22;45954;49.768;8.636;2023-04-24T00:44:24;13.00;99.90
59651;DHT22;45954;49.768;8.636;2023-04-24T00:46:50;13.10;99.90
59651;DHT22;45954;49.768;8.636;2023-04-24T00:49:21;13.00;99.90
59651;DHT22;45954;49.768;8.636;2023-04-24T00:51:47;13.00;99.90
59651;DHT22;45954;49.768;8.636;2023-04-24T00:54:15;13.00;99.90
59651;DHT22;45954;49.768;8.636;2023-04-24T00:56:42;13.10;99.90
59651;DHT22;45954;49.768;8.636;2023-04-24T00:59:09;13.00;99.90
59651;DHT22;45954;49.768;8.636;2023-04-24T01:01:35;13.00;99.90
59651;DHT22;45954;49.768;8.636;2023-04-24T01:04:02;13.10;99.90
59651;DHT22;45954;49.768;8.636;2023-04-24T01:06:29;13.10;99.90
59651;DHT22;45954;49.768;8.636;2023-04-24T01:08:58;13.00;99.90
59651;DHT22;45954;49.768;8.636;2023-04-24T01:11:25;13.10;99.90
59651;DHT22;45954;49.768;8.636;2023-04-24T01:13:52;13.10;99.90
59651;DHT22;45954;49.768;8.636;2023-04-24T01:16:18;12.90;99.90
59651;DHT22;45954;49.768;8.636;2023-04-24T01:18:46;12.90;99.90
59651;DHT22;45954;49.768;8.636;2023-04-24T01:21:16;12.80;99.90
59651;DHT22;45954;49.768;8.636;2023-04-24T01:23:44;12.90;99.90
59651;DHT22;45954;49.768;8.636;2023-04-24T01:26:12;13.00;99.90
59651;DHT22;45954;49.768;8.636;2023-04-24T01:28:39;12.90;99.90
59651;DHT22;45954;49.768;8.636;2023-04-24T01:31:06;13.00;99.90
59651;DHT22;45954;49.768;8.636;2023-04-24T01:33:32;13.10;99.90
59651;DHT22;45954;49.768;8.636;2023-04-24T01:35:58;13.20;99.90
59651;DHT22;45954;49.768;8.636;2023-04-24T01:38:24;13.10;99.90
59651;DHT22;45954;49.768;8.636;2023-04-24T01:40:51;13.10;99.90
59651;DHT22;45954;49.768;8.636;2023-04-24T01:43:17;13.40;99.90
59651;DHT22;45954;49.768;8.636;2023-04-24T01:45:44;13.10;99.90
59651;DHT22;45954;49.768;8.636;2023-04-24T01:48:11;13.00;99.90
59651;DHT22;45954;49.768;8.636;2023-04-24T01:50:38;13.00;99.90
59651;DHT22;45954;49.768;8.636;2023-04-24T01:53:04;13.10;99.90
59651;DHT22;45954;49.768;8.636;2023-04-24T01:55:30;13.00;99.90
59651;DHT22;45954;49.768;8.636;2023-04-24T01:57:56;12.90;99.90
59651;DHT22;45954;49.768;8.636;2023-04-24T02:00:23;13.10;99.90
59651;DHT22;45954;49.768;8.636;2023-04-24T02:02:50;13.10;99.90
59651;DHT22;45954;49.768;8.636;2023-04-24T02:05:16;13.10;99.90
59651;DHT22;45954;49.768;8.636;2023-04-24T02:07:41;13.10;99.90
59651;DHT22;45954;49.768;8.636;2023-04-24T02:10:08;13.10;99.90
59651;DHT22;45954;49.768;8.636;2023-04-24T02:12:34;13.10;99.90
59651;DHT22;45954;49.768;8.636;2023-04-24T02:15:00;13.00;99.90
59651;DHT22;45954;49.768;8.636;2023-04-24T02:17:26;13.10;99.90
59651;DHT22;45954;49.768;8.636;2023-04-24T02:19:52;13.10;99.90
59651;DHT22;45954;49.768;8.636;2023-04-24T02:22:18;13.00;99.90
59651;DHT22;45954;49.768;8.636;2023-04-24T02:24:44;13.00;99.90
59651;DHT22;45954;49.768;8.636;2023-04-24T02:27:10;12.90;99.90
59651;DHT22;45954;49.768;8.636;2023-04-24T02:29:37;12.80;99.90
59651;DHT22;45954;49.768;8.636;2023-04-24T02:32:02;12.60;99.90
59651;DHT22;45954;49.768;8.636;2023-04-24T02:34:28;12.60;99.90
59651;DHT22;45954;49.768;8.636;2023-04-24T02:36:54;12.40;99.90
59651;DHT22;45954;49.768;8.636;2023-04-24T02:39:20;12.50;99.90
59651;DHT22;45954;49.768;8.636;2023-04-24T02:41:46;12.60;99.90
59651;DHT22;45954;49.768;8.636;2023-04-24T02:44:12;12.70;99.90
59651;DHT22;45954;49.768;8.636;2023-04-24T02:46:38;12.50;99.90
59651;DHT22;45954;49.768;8.636;2023-04-24T02:49:06;12.30;99.90
59651;DHT22;45954;49.768;8.636;2023-04-24T02:51:32;12.20;99.90
59651;DHT22;45954;49.768;8.636;2023-04-24T02:53:58;12.20;99.90
59651;DHT22;45954;49.768;8.636;2023-04-24T02:56:24;12.20;99.90
59651;DHT22;45954;49.768;8.636;2023-04-24T02:58:50;12.20;99.90
59651;DHT22;45954;49.768;8.636;2023-04-24T03:01:16;12.20;99.90
59651;DHT22;45954;49.768;8.636;2023-04-24T03:03:41;12.00;99.90
59651;DHT22;45954;49.768;8.636;2023-04-24T03:06:07;12.20;99.90
59651;DHT22;45954;49.768;8.636;2023-04-24T03:08:33;12.30;99.90
59651;DHT22;45954;49.768;8.636;2023-04-24T03:11:00;12.10;99.90
59651;DHT22;45954;49.768;8.636;2023-04-24T03:13:26;12.20;99.90
59651;DHT22;45954;49.768;8.636;2023-04-24T03:15:52;12.00;99.90
59651;DHT22;45954;49.768;8.636;2023-04-24T03:18:18;12.20;99.90
59651;DHT22;45954;49.768;8.636;2023-04-24T03:20:46;12.00;99.90
59651;DHT22;45954;49.768;8.636;2023-04-24T03:23:12;11.90;99.90
59651;DHT22;45954;49.768;8.636;2023-04-24T03:25:38;12.10;99.90
59651;DHT22;45954;49.768;8.636;2023-04-24T03:28:04;12.30;99.90
59651;DHT22;45954;49.768;8.636;2023-04-24T03:30:30;12.20;99.90
59651;DHT22;45954;49.768;8.636;2023-04-24T03:32:56;12.10;99.90
59651;DHT22;45954;49.768;8.636;2023-04-24T03:35:22;11.90;99.90
59651;DHT22;45954;49.768;8.636;2023-04-24T03:37:48;11.60;99.90
59651;DHT22;45954;49.768;8.636;2023-04-24T03:40:14;11.50;99.90
59651;DHT22;45954;49.768;8.636;2023-04-24T03:42:39;11.60;99.90
59651;DHT22;45954;49.768;8.636;2023-04-24T03:45:06;11.90;99.90
59651;DHT22;45954;49.768;8.636;2023-04-24T03:47:32;11.90;99.90
59651;DHT22;45954;49.768;8.636;2023-04-24T03:49:58;11.90;99.90
59651;DHT22;45954;49.768;8.636;2023-04-24T03:52:24;11.70;99.90
59651;DHT22;45954;49.768;8.636;2023-04-24T03:54:50;11.70;99.90
59651;DHT22;45954;49.768;8.636;2023-04-24T03:57:16;11.80;99.90
59651;DHT22;45954;49.768;8.636;2023-04-24T03:59:42;11.90;99.90
59651;DHT22;45954;49.768;8.636;2023-04-24T04:02:07;11.80;99.90
59651;DHT22;45954;49.768;8.636;2023-04-24T04:04:33;11.60;99.90
59651;DHT22;45954;49.768;8.636;2023-04-24T04:06:59;11.60;99.90
59651;DHT22;45954;49.768;8.636;2023-04-24T04:09:28;11.50;99.90
59651;DHT22;45954;49.768;8.636;2023-04-24T04:11:54;11.40;99.90
59651;DHT22;45954;49.768;8.636;2023-04-24T04:14:21;11.30;99.90
59651;DHT22;45954;49.768;8.636;2023-04-24T04:16:48;11.20;99.90
59651;DHT22;45954;49.768;8.636;2023-04-24T04:19:13;11.30;99.90
59651;DHT22;45954;49.768;8.636;2023-04-24T04:21:39;11.20;99.90
59651;DHT22;45954;49.768;8.636;2023-04-24T04:24:05;11.30;99.90
59651;DHT22;45954;49.768;8.636;2023-04-24T04:26:33;11.20;99.90
59651;DHT22;45954;49.768;8.636;2023-04-24T04:28:59;11.20;99.90
59651;DHT22;45954;49.768;8.636;2023-04-24T04:31:29;11.20;99.90
59651;DHT22;45954;49.768;8.636;2023-04-24T04:33:56;11.30;99.90
59651;DHT22;45954;49.768;8.636;2023-04-24T04:36:22;11.20;99.90
59651;DHT22;45954;49.768;8.636;2023-04-24T04:38:49;11.20;99.90
59651;DHT22;45954;49.768;8.636;2023-04-24T04:41:15;11.30;99.90
59651;DHT22;45954;49.768;8.636;2023-04-24T04:43:43;11.40;99.90
59651;DHT22;45954;49.768;8.636;2023-04-24T04:46:09;11.50;99.90
59651;DHT22;45954;49.768;8.636;2023-04-24T04:48:36;11.30;99.90
59651;DHT22;45954;49.768;8.636;2023-04-24T04:51:03;11.30;99.90
59651;DHT22;45954;49.768;8.636;2023-04-24T04:53:29;11.40;99.90
59651;DHT22;45954;49.768;8.636;2023-04-24T04:55:55;11.30;99.90
59651;DHT22;45954;49.768;8.636;2023-04-24T04:58:21;11.30;99.90
59651;DHT22;45954;49.768;8.636;2023-04-24T05:00:47;11.30;99.90
59651;DHT22;45954;49.768;8.636;2023-04-24T05:03:13;11.40;99.90
59651;DHT22;45954;49.768;8.636;2023-04-24T05:05:39;11.30;99.90
59651;DHT22;45954;49.768;8.636;2023-04-24T05:08:07;11.00;99.90
59651;DHT22;45954;49.768;8.636;2023-04-24T05:10:34;11.00;99.90
59651;DHT22;45954;49.768;8.636;2023-04-24T05:13:00;11.10;99.90
59651;DHT22;45954;49.768;8.636;2023-04-24T05:15:26;11.10;99.90
59651;DHT22;45954;49.768;8.636;2023-04-24T05:17:52;11.10;99.90
59651;DHT22;45954;49.768;8.636;2023-04-24T05:20:18;11.20;99.90
59651;DHT22;45954;49.768;8.636;2023-04-24T05:22:44;11.40;99.90
59651;DHT22;45954;49.768;8.636;2023-04-24T05:25:09;11.30;99.90
59651;DHT22;45954;49.768;8.636;2023-04-24T05:27:35;11.30;99.90
59651;DHT22;45954;49.768;8.636;2023-04-24T05:30:01;11.40;99.90
59651;DHT22;45954;49.768;8.636;2023-04-24T05:32:27;11.40;99.90
59651;DHT22;45954;49.768;8.636;2023-04-24T05:34:53;11.60;99.90
59651;DHT22;45954;49.768;8.636;2023-04-24T05:37:19;11.50;99.90
59651;DHT22;45954;49.768;8.636;2023-04-24T05:39:45;11.50;99.90
59651;DHT22;45954;49.768;8.636;2023-04-24T05:42:11;11.60;99.90
59651;DHT22;45954;49.768;8.636;2023-04-24T05:44:36;11.70;99.90
59651;DHT22;45954;49.768;8.636;2023-04-24T05:47:02;11.80;99.90
59651;DHT22;45954;49.768;8.636;2023-04-24T05:49:28;11.70;99.90
59651;DHT22;45954;49.768;8.636;2023-04-24T05:51:54;11.60;99.90
59651;DHT22;45954;49.768;8.636;2023-04-24T05:54:20;11.70;99.90
59651;DHT22;45954;49.768;8.636;2023-04-24T05:56:46;11.50;99.90
59651;DHT22;45954;49.768;8.636;2023-04-24T05:59:12;11.60;99.90
59651;DHT22;45954;49.768;8.636;2023-04-24T06:01:38;11.60;99.90
59651;DHT22;45954;49.768;8.636;2023-04-24T06:04:04;11.70;99.90
59651;DHT22;45954;49.768;8.636;2023-04-24T06:06:30;11.70;99.90
59651;DHT22;45954;49.768;8.636;2023-04-24T06:08:56;11.80;99.90
59651;DHT22;45954;49.768;8.636;2023-04-24T06:11:24;11.50;99.90
59651;DHT22;45954;49.768;8.636;2023-04-24T06:13:50;11.50;99.90
59651;DHT22;45954;49.768;8.636;2023-04-24T06:16:17;11.60;99.90
59651;DHT22;45954;49.768;8.636;2023-04-24T06:18:43;11.30;99.90
59651;DHT22;45954;49.768;8.636;2023-04-24T06:21:09;11.30;99.90
59651;DHT22;45954;49.768;8.636;2023-04-24T06:23:35;11.30;99.90
59651;DHT22;45954;49.768;8.636;2023-04-24T06:26:01;11.20;99.90
59651;DHT22;45954;49.768;8.636;2023-04-24T06:28:26;11.20;99.90
59651;DHT22;45954;49.768;8.636;2023-04-24T06:30:52;11.30;99.90
59651;DHT22;45954;49.768;8.636;2023-04-24T06:33:18;11.10;99.90
59651;DHT22;45954;49.768;8.636;2023-04-24T06:35:44;11.20;99.90
59651;DHT22;45954;49.768;8.636;2023-04-24T06:38:10;11.20;99.90
59651;DHT22;45954;49.768;8.636;2023-04-24T06:40:37;11.20;99.90
59651;DHT22;45954;49.768;8.636;2023-04-24T06:43:03;11.30;99.90
59651;DHT22;45954;49.768;8.636;2023-04-24T06:45:29;11.20;99.90
59651;DHT22;45954;49.768;8.636;2023-04-24T06:47:56;11.30;99.90
59651;DHT22;45954;49.768;8.636;2023-04-24T06:50:22;11.40;99.90
59651;DHT22;45954;49.768;8.636;2023-04-24T06:52:48;11.40;99.90
59651;DHT22;45954;49.768;8.636;2023-04-24T06:55:13;11.40;99.90
59651;DHT22;45954;49.768;8.636;2023-04-24T06:57:42;11.40;99.90
59651;DHT22;45954;49.768;8.636;2023-04-24T07:00:08;11.60;99.90
59651;DHT22;45954;49.768;8.636;2023-04-24T07:02:35;11.70;99.90
59651;DHT22;45954;49.768;8.636;2023-04-24T07:05:01;11.50;99.90
59651;DHT22;45954;49.768;8.636;2023-04-24T07:07:27;11.30;99.90
59651;DHT22;45954;49.768;8.636;2023-04-24T07:09:53;11.30;99.90
59651;DHT22;45954;49.768;8.636;2023-04-24T07:12:19;11.70;99.90
59651;DHT22;45954;49.768;8.636;2023-04-24T07:14:47;12.00;99.90
59651;DHT22;45954;49.768;8.636;2023-04-24T07:17:13;12.00;99.90
59651;DHT22;45954;49.768;8.636;2023-04-24T07:19:40;12.10;99.90
59651;DHT22;45954;49.768;8.636;2023-04-24T07:22:06;11.90;99.90
59651;DHT22;45954;49.768;8.636;2023-04-24T07:24:32;12.20;99.90
59651;DHT22;45954;49.768;8.636;2023-04-24T07:26:58;12.40;99.90
59651;DHT22;45954;49.768;8.636;2023-04-24T07:29:25;12.40;99.90
59651;DHT22;45954;49.768;8.636;2023-04-24T07:31:50;12.40;99.90
59651;DHT22;45954;49.768;8.636;2023-04-24T07:34:16;12.30;99.90
59651;DHT22;45954;49.768;8.636;2023-04-24T07:36:42;12.50;99.90
59651;DHT22;45954;49.768;8.636;2023-04-24T07:39:08;12.40;99.90
59651;DHT22;45954;49.768;8.636;2023-04-24T07:41:34;12.10;99.90
59651;DHT22;45954;49.768;8.636;2023-04-24T07:44:00;12.00;99.90
59651;DHT22;45954;49.768;8.636;2023-04-24T07:46:26;12.20;99.90
59651;DHT22;45954;49.768;8.636;2023-04-24T07:48:55;12.20;99.90
59651;DHT22;45954;49.768;8.636;2023-04-24T07:51:21;12.20;99.90
59651;DHT22;45954;49.768;8.636;2023-04-24T07:53:47;12.60;99.90
59651;DHT22;45954;49.768;8.636;2023-04-24T07:56:13;12.80;99.90
59651;DHT22;45954;49.768;8.636;2023-04-24T07:58:39;12.80;99.90
59651;DHT22;45954;49.768;8.636;2023-04-24T08:01:05;12.30;99.90
59651;DHT22;45954;49.768;8.636;2023-04-24T08:03:31;12.00;99.90
59651;DHT22;45954;49.768;8.636;2023-04-24T08:05:57;12.20;99.90
59651;DHT22;45954;49.768;8.636;2023-04-24T08:08:23;12.00;99.90
59651;DHT22;45954;49.768;8.636;2023-04-24T08:10:50;12.00;99.90
59651;DHT22;45954;49.768;8.636;2023-04-24T08:13:16;12.20;99.90
59651;DHT22;45954;49.768;8.636;2023-04-24T08:15:42;12.20;99.90
59651;DHT22;45954;49.768;8.636;2023-04-24T08:18:08;12.10;99.90
59651;DHT22;45954;49.768;8.636;2023-04-24T08:20:34;12.00;99.90
59651;DHT22;45954;49.768;8.636;2023-04-24T08:23:02;12.10;99.90
59651;DHT22;45954;49.768;8.636;2023-04-24T08:25:27;12.20;99.90
59651;DHT22;45954;49.768;8.636;2023-04-24T08:27:53;12.30;99.90
59651;DHT22;45954;49.768;8.636;2023-04-24T08:30:20;12.30;99.90
59651;DHT22;45954;49.768;8.636;2023-04-24T08:32:46;12.20;99.90
59651;DHT22;45954;49.768;8.636;2023-04-24T08:35:12;12.20;99.90
59651;DHT22;45954;49.768;8.636;2023-04-24T08:37:38;12.30;99.90
59651;DHT22;45954;49.768;8.636;2023-04-24T08:40:10;12.40;99.90
59651;DHT22;45954;49.768;8.636;2023-04-24T08:42:40;12.20;99.90
59651;DHT22;45954;49.768;8.636;2023-04-24T08:45:09;12.10;99.90
59651;DHT22;45954;49.768;8.636;2023-04-24T08:47:38;12.50;99.90
59651;DHT22;45954;49.768;8.636;2023-04-24T08:50:04;12.70;99.90
59651;DHT22;45954;49.768;8.636;2023-04-24T08:52:35;13.40;99.90
59651;DHT22;45954;49.768;8.636;2023-04-24T08:55:01;13.10;99.20
59651;DHT22;45954;49.768;8.636;2023-04-24T08:57:29;12.60;99.40
59651;DHT22;45954;49.768;8.636;2023-04-24T08:59:58;12.80;99.90
59651;DHT22;45954;49.768;8.636;2023-04-24T09:02:25;12.80;99.90
59651;DHT22;45954;49.768;8.636;2023-04-24T09:04:51;12.60;99.80
59651;DHT22;45954;49.768;8.636;2023-04-24T09:07:20;12.60;99.40
59651;DHT22;45954;49.768;8.636;2023-04-24T09:09:48;12.40;99.50
59651;DHT22;45954;49.768;8.636;2023-04-24T09:12:17;12.30;99.90
59651;DHT22;45954;49.768;8.636;2023-04-24T09:14:44;12.20;99.90
59651;DHT22;45954;49.768;8.636;2023-04-24T09:17:11;12.00;99.90
59651;DHT22;45954;49.768;8.636;2023-04-24T09:19:37;12.10;99.90
59651;DHT22;45954;49.768;8.636;2023-04-24T09:22:07;12.10;99.90
59651;DHT22;45954;49.768;8.636;2023-04-24T09:24:34;12.20;99.90
59651;DHT22;45954;49.768;8.636;2023-04-24T09:27:01;12.40;99.90
59651;DHT22;45954;49.768;8.636;2023-04-24T09:29:27;12.10;99.90
59651;DHT22;45954;49.768;8.636;2023-04-24T09:31:54;12.00;99.90
59651;DHT22;45954;49.768;8.636;2023-04-24T09:34:25;12.10;99.90
59651;DHT22;45954;49.768;8.636;2023-04-24T09:36:52;11.90;99.90
59651;DHT22;45954;49.768;8.636;2023-04-24T09:39:19;11.90;99.90
59651;DHT22;45954;49.768;8.636;2023-04-24T09:41:52;11.90;99.90
59651;DHT22;45954;49.768;8.636;2023-04-24T09:44:25;12.00;99.90
59651;DHT22;45954;49.768;8.636;2023-04-24T09:46:54;11.90;99.90
59651;DHT22;45954;49.768;8.636;2023-04-24T09:49:29;11.90;99.90
59651;DHT22;45954;49.768;8.636;2023-04-24T09:52:07;11.90;99.90
59651;DHT22;45954;49.768;8.636;2023-04-24T09:54:35;11.90;99.90
59651;DHT22;45954;49.768;8.636;2023-04-24T09:57:02;12.00;99.90
59651;DHT22;45954;49.768;8.636;2023-04-24T09:59:29;12.00;99.90
59651;DHT22;45954;49.768;8.636;2023-04-24T10:01:55;12.20;99.90
59651;DHT22;45954;49.768;8.636;2023-04-24T10:04:25;12.10;99.90
59651;DHT22;45954;49.768;8.636;2023-04-24T10:06:54;12.00;99.90
59651;DHT22;45954;49.768;8.636;2023-04-24T10:09:23;11.90;99.90
59651;DHT22;45954;49.768;8.636;2023-04-24T10:11:51;11.90;99.90
59651;DHT22;45954;49.768;8.636;2023-04-24T10:14:23;12.00;99.90
59651;DHT22;45954;49.768;8.636;2023-04-24T10:16:52;12.30;99.90
59651;DHT22;45954;49.768;8.636;2023-04-24T10:19:19;12.60;99.90
59651;DHT22;45954;49.768;8.636;2023-04-24T10:21:45;12.60;99.90
59651;DHT22;45954;49.768;8.636;2023-04-24T10:24:15;12.50;99.90
59651;DHT22;45954;49.768;8.636;2023-04-24T10:26:44;12.50;99.90
59651;DHT22;45954;49.768;8.636;2023-04-24T10:29:12;12.40;99.90
59651;DHT22;45954;49.768;8.636;2023-04-24T10:31:40;12.50;99.90
59651;DHT22;45954;49.768;8.636;2023-04-24T10:34:08;12.30;99.90
59651;DHT22;45954;49.768;8.636;2023-04-24T10:36:41;12.20;99.90
59651;DHT22;45954;49.768;8.636;2023-04-24T10:39:12;12.50;99.90
59651;DHT22;45954;49.768;8.636;2023-04-24T10:41:40;12.60;99.90
59651;DHT22;45954;49.768;8.636;2023-04-24T10:44:09;12.40;99.90
59651;DHT22;45954;49.768;8.636;2023-04-24T10:46:39;12.30;99.90
59651;DHT22;45954;49.768;8.636;2023-04-24T10:49:06;12.40;99.90
59651;DHT22;45954;49.768;8.636;2023-04-24T10:51:49;12.10;99.90
59651;DHT22;45954;49.768;8.636;2023-04-24T10:54:34;12.40;99.90
59651;DHT22;45954;49.768;8.636;2023-04-24T10:59:45;12.30;99.90
59651;DHT22;45954;49.768;8.636;2023-04-24T11:02:16;12.50;99.90
59651;DHT22;45954;49.768;8.636;2023-04-24T11:04:44;12.50;99.90
59651;DHT22;45954;49.768;8.636;2023-04-24T11:07:11;12.60;99.90
59651;DHT22;45954;49.768;8.636;2023-04-24T11:09:37;12.80;99.90
59651;DHT22;45954;49.768;8.636;2023-04-24T11:12:09;12.90;99.90
59651;DHT22;45954;49.768;8.636;2023-04-24T11:17:47;13.00;99.90
59651;DHT22;45954;49.768;8.636;2023-04-24T11:20:17;12.70;99.90
59651;DHT22;45954;49.768;8.636;2023-04-24T11:22:43;12.70;99.90
59651;DHT22;45954;49.768;8.636;2023-04-24T11:25:09;12.70;99.90
59651;DHT22;45954;49.768;8.636;2023-04-24T11:27:44;12.40;99.90
59651;DHT22;45954;49.768;8.636;2023-04-24T11:30:18;12.30;99.90
59651;DHT22;45954;49.768;8.636;2023-04-24T11:32:48;12.30;99.90
59651;DHT22;45954;49.768;8.636;2023-04-24T11:37:45;12.20;99.90
59651;DHT22;45954;49.768;8.636;2023-04-24T11:40:15;12.30;99.90
59651;DHT22;45954;49.768;8.636;2023-04-24T11:42:47;12.60;99.90
59651;DHT22;45954;49.768;8.636;2023-04-24T11:47:42;12.80;99.90
59651;DHT22;45954;49.768;8.636;2023-04-24T11:50:14;12.60;99.90
59651;DHT22;45954;49.768;8.636;2023-04-24T11:52:42;12.50;99.90
59651;DHT22;45954;49.768;8.636;2023-04-24T11:57:49;12.60;99.90
59651;DHT22;45954;49.768;8.636;2023-04-24T12:00:19;12.80;99.90
59651;DHT22;45954;49.768;8.636;2023-04-24T12:02:47;12.90;99.90
59651;DHT22;45954;49.768;8.636;2023-04-24T12:05:26;13.00;99.90
59651;DHT22;45954;49.768;8.636;2023-04-24T12:07:53;13.20;99.90
59651;DHT22;45954;49.768;8.636;2023-04-24T12:10:24;12.90;99.90
59651;DHT22;45954;49.768;8.636;2023-04-24T12:12:52;12.60;99.90
59651;DHT22;45954;49.768;8.636;2023-04-24T12:15:20;12.60;99.90
59651;DHT22;45954;49.768;8.636;2023-04-24T12:17:47;12.60;99.90
59651;DHT22;45954;49.768;8.636;2023-04-24T12:20:14;12.30;99.90
59651;DHT22;45954;49.768;8.636;2023-04-24T12:25:11;11.40;99.90
59651;DHT22;45954;49.768;8.636;2023-04-24T12:27:37;11.10;99.90
59651;DHT22;45954;49.768;8.636;2023-04-24T12:30:05;11.00;99.90
59651;DHT22;45954;49.768;8.636;2023-04-24T12:32:35;10.90;99.90
59651;DHT22;45954;49.768;8.636;2023-04-24T12:35:07;11.00;99.90
59651;DHT22;45954;49.768;8.636;2023-04-24T12:37:33;11.30;99.90
59651;DHT22;45954;49.768;8.636;2023-04-24T12:40:09;11.20;99.90
59651;DHT22;45954;49.768;8.636;2023-04-24T12:42:43;11.30;99.90
59651;DHT22;45954;49.768;8.636;2023-04-24T12:45:10;11.40;99.90
59651;DHT22;45954;49.768;8.636;2023-04-24T12:47:39;11.60;99.90
59651;DHT22;45954;49.768;8.636;2023-04-24T12:50:13;11.90;99.90
59651;DHT22;45954;49.768;8.636;2023-04-24T12:52:41;12.30;99.90
59651;DHT22;45954;49.768;8.636;2023-04-24T12:55:08;12.20;99.90
59651;DHT22;45954;49.768;8.636;2023-04-24T12:57:36;12.50;99.90
59651;DHT22;45954;49.768;8.636;2023-04-24T13:00:05;12.70;99.90
59651;DHT22;45954;49.768;8.636;2023-04-24T13:02:33;12.90;99.90
59651;DHT22;45954;49.768;8.636;2023-04-24T13:05:00;13.10;99.90
59651;DHT22;45954;49.768;8.636;2023-04-24T13:07:27;13.20;99.90
59651;DHT22;45954;49.768;8.636;2023-04-24T13:09:54;13.20;99.90
59651;DHT22;45954;49.768;8.636;2023-04-24T13:12:21;13.10;99.90
59651;DHT22;45954;49.768;8.636;2023-04-24T13:14:49;13.20;99.90
59651;DHT22;45954;49.768;8.636;2023-04-24T13:17:15;13.30;99.90
59651;DHT22;45954;49.768;8.636;2023-04-24T13:19:43;13.20;99.90
59651;DHT22;45954;49.768;8.636;2023-04-24T13:22:11;13.60;99.50
59651;DHT22;45954;49.768;8.636;2023-04-24T13:24:39;14.20;99.50
59651;DHT22;45954;49.768;8.636;2023-04-24T13:27:09;14.70;98.70
59651;DHT22;45954;49.768;8.636;2023-04-24T13:29:35;14.40;99.40
59651;DHT22;45954;49.768;8.636;2023-04-24T13:32:04;14.10;98.80
59651;DHT22;45954;49.768;8.636;2023-04-24T13:34:31;13.70;99.80
59651;DHT22;45954;49.768;8.636;2023-04-24T13:36:57;13.60;99.90
59651;DHT22;45954;49.768;8.636;2023-04-24T13:39:25;13.60;99.90
59651;DHT22;45954;49.768;8.636;2023-04-24T13:41:51;13.20;99.70
59651;DHT22;45954;49.768;8.636;2023-04-24T13:44:19;13.30;99.90
59651;DHT22;45954;49.768;8.636;2023-04-24T13:46:48;13.30;99.90
59651;DHT22;45954;49.768;8.636;2023-04-24T13:49:16;13.70;99.90
59651;DHT22;45954;49.768;8.636;2023-04-24T13:51:43;13.60;99.20
59651;DHT22;45954;49.768;8.636;2023-04-24T13:54:09;14.00;99.00
59651;DHT22;45954;49.768;8.636;2023-04-24T13:56:35;13.70;99.60
59651;DHT22;45954;49.768;8.636;2023-04-24T13:59:00;13.80;98.40
59651;DHT22;45954;49.768;8.636;2023-04-24T14:01:26;13.70;98.80
59651;DHT22;45954;49.768;8.636;2023-04-24T14:03:53;13.70;98.00
59651;DHT22;45954;49.768;8.636;2023-04-24T14:06:19;13.90;98.60
59651;DHT22;45954;49.768;8.636;2023-04-24T14:08:47;14.00;98.50
59651;DHT22;45954;49.768;8.636;2023-04-24T14:11:13;13.90;98.90
59651;DHT22;45954;49.768;8.636;2023-04-24T14:13:41;14.10;98.60
59651;DHT22;45954;49.768;8.636;2023-04-24T14:16:07;14.10;97.70
59651;DHT22;45954;49.768;8.636;2023-04-24T14:18:33;14.10;97.60
59651;DHT22;45954;49.768;8.636;2023-04-24T14:21:00;13.60;97.60
59651;DHT22;45954;49.768;8.636;2023-04-24T14:23:27;13.50;97.80
59651;DHT22;45954;49.768;8.636;2023-04-24T14:25:53;13.60;98.10
59651;DHT22;45954;49.768;8.636;2023-04-24T14:28:19;13.50;98.50
59651;DHT22;45954;49.768;8.636;2023-04-24T14:30:46;13.60;98.50
59651;DHT22;45954;49.768;8.636;2023-04-24T14:33:13;13.60;98.50
59651;DHT22;45954;49.768;8.636;2023-04-24T14:35:40;13.60;98.60
59651;DHT22;45954;49.768;8.636;2023-04-24T14:38:08;13.50;98.40
59651;DHT22;45954;49.768;8.636;2023-04-24T14:40:34;13.50;99.00
59651;DHT22;45954;49.768;8.636;2023-04-24T14:43:00;13.60;98.20
59651;DHT22;45954;49.768;8.636;2023-04-24T14:45:26;13.50;98.80
59651;DHT22;45954;49.768;8.636;2023-04-24T14:47:53;13.60;99.10
59651;DHT22;45954;49.768;8.636;2023-04-24T14:50:19;13.80;99.00
59651;DHT22;45954;49.768;8.636;2023-04-24T14:52:45;13.80;98.50
59651;DHT22;45954;49.768;8.636;2023-04-24T14:55:12;13.60;99.00
59651;DHT22;45954;49.768;8.636;2023-04-24T14:57:39;13.70;98.30
59651;DHT22;45954;49.768;8.636;2023-04-24T15:00:06;13.70;97.60
59651;DHT22;45954;49.768;8.636;2023-04-24T15:02:35;13.40;98.00
59651;DHT22;45954;49.768;8.636;2023-04-24T15:05:06;13.30;98.20
59651;DHT22;45954;49.768;8.636;2023-04-24T15:07:32;13.30;98.70
59651;DHT22;45954;49.768;8.636;2023-04-24T15:09:58;13.20;98.60
59651;DHT22;45954;49.768;8.636;2023-04-24T15:12:24;13.30;98.60
59651;DHT22;45954;49.768;8.636;2023-04-24T15:14:50;13.40;98.40
59651;DHT22;45954;49.768;8.636;2023-04-24T15:17:16;13.30;98.60
59651;DHT22;45954;49.768;8.636;2023-04-24T15:19:42;13.30;98.10
59651;DHT22;45954;49.768;8.636;2023-04-24T15:22:09;13.40;98.80
59651;DHT22;45954;49.768;8.636;2023-04-24T15:24:35;13.90;98.20
59651;DHT22;45954;49.768;8.636;2023-04-24T15:27:01;14.90;97.20
59651;DHT22;45954;49.768;8.636;2023-04-24T15:29:28;16.20;96.30
59651;DHT22;45954;49.768;8.636;2023-04-24T15:31:55;16.70;94.90
59651;DHT22;45954;49.768;8.636;2023-04-24T15:34:20;15.60;95.00
59651;DHT22;45954;49.768;8.636;2023-04-24T15:36:46;15.30;95.70
59651;DHT22;45954;49.768;8.636;2023-04-24T15:39:13;15.00;95.10
59651;DHT22;45954;49.768;8.636;2023-04-24T15:41:39;14.80;95.70
59651;DHT22;45954;49.768;8.636;2023-04-24T15:44:05;15.10;96.20